createdAt,value
2024-05-09T00:01:03.715Z,61.61
2024-05-09T00:01:33.689Z,61.61
2024-05-09T00:02:03.713Z,61.61
2024-05-09T00:02:33.710Z,61.61
2024-05-09T00:03:33.715Z,61.61
2024-05-09T00:04:03.715Z,61.61
2024-05-09T00:06:33.608Z,61.61
2024-05-09T00:07:03.625Z,61.71
2024-05-09T00:07:33.601Z,61.71
2024-05-09T00:08:03.788Z,61.61
2024-05-09T00:08:33.729Z,61.61
2024-05-09T00:09:03.610Z,61.61
2024-05-09T00:09:33.594Z,61.61
2024-05-09T00:11:33.674Z,61.71
2024-05-09T00:12:03.673Z,61.71
2024-05-09T00:13:33.524Z,61.61
2024-05-09T00:14:03.610Z,61.61
2024-05-09T00:14:33.572Z,61.61
2024-05-09T00:16:03.507Z,61.61
2024-05-09T00:18:04.101Z,61.71
2024-05-09T00:18:33.611Z,61.61
2024-05-09T00:19:03.556Z,61.61
2024-05-09T00:20:05.321Z,61.61
2024-05-09T00:20:38.691Z,61.61
2024-05-09T00:22:33.431Z,61.61
2024-05-09T00:23:33.459Z,61.61
2024-05-09T00:24:33.405Z,61.61
2024-05-09T00:25:03.399Z,61.61
2024-05-09T00:25:33.414Z,61.61
2024-05-09T00:27:03.385Z,61.61
2024-05-09T00:28:03.425Z,61.74
2024-05-09T00:29:03.379Z,61.74
2024-05-09T00:30:04.260Z,61.74
2024-05-09T00:30:36.101Z,61.74
2024-05-09T00:31:03.339Z,61.74
2024-05-09T00:31:33.322Z,61.74
2024-05-09T00:33:33.519Z,61.64
2024-05-09T00:34:33.349Z,61.61
2024-05-09T00:35:33.512Z,61.64
2024-05-09T00:36:03.269Z,61.64
2024-05-09T00:37:33.262Z,61.74
2024-05-09T00:38:03.570Z,61.74
2024-05-09T00:39:03.243Z,61.74
2024-05-09T00:40:03.597Z,61.74
2024-05-09T00:41:03.272Z,61.64
2024-05-09T00:41:33.285Z,61.74
2024-05-09T00:43:03.201Z,61.74
2024-05-09T00:43:33.199Z,61.74
2024-05-09T00:44:33.222Z,61.74
2024-05-09T00:45:33.175Z,61.74
2024-05-09T00:46:33.148Z,61.64
2024-05-09T00:47:03.260Z,61.64
2024-05-09T00:49:03.199Z,61.64
2024-05-09T00:50:04.152Z,61.74
2024-05-09T00:50:36.522Z,61.74
2024-05-09T00:51:03.196Z,61.74
2024-05-09T00:51:33.105Z,61.74
2024-05-09T00:52:03.091Z,61.74
2024-05-09T00:52:33.083Z,61.74
2024-05-09T00:53:33.258Z,61.74
2024-05-09T00:54:33.050Z,61.74
2024-05-09T00:55:33.056Z,61.74
2024-05-09T00:56:33.095Z,61.74
2024-05-09T00:57:03.050Z,61.74
2024-05-09T00:57:33.040Z,61.74
2024-05-09T00:59:03.030Z,61.74
2024-05-09T01:00:04.757Z,61.74
2024-05-09T01:01:03.043Z,61.74
2024-05-09T01:02:03.048Z,61.84
2024-05-09T01:03:33.325Z,61.84
2024-05-09T01:04:03.109Z,61.84
2024-05-09T01:04:33.013Z,61.84
2024-05-09T01:05:33.074Z,61.84
2024-05-09T01:07:32.960Z,61.84
2024-05-09T01:09:02.894Z,61.84
2024-05-09T01:09:32.890Z,61.84
2024-05-09T01:10:03.261Z,61.84
2024-05-09T01:11:03.026Z,61.84
2024-05-09T01:11:32.966Z,61.74
2024-05-09T01:12:32.931Z,61.74
2024-05-09T01:13:02.908Z,61.84
2024-05-09T01:14:32.864Z,61.84
2024-05-09T01:15:02.832Z,61.84
2024-05-09T01:15:32.829Z,61.84
2024-05-09T01:16:32.829Z,61.84
2024-05-09T01:18:32.860Z,61.84
2024-05-09T01:19:02.917Z,61.84
2024-05-09T01:20:04.235Z,61.84
2024-05-09T01:21:02.788Z,61.84
2024-05-09T01:21:32.747Z,61.84
2024-05-09T01:22:32.748Z,61.84
2024-05-09T01:23:02.755Z,61.84
2024-05-09T01:24:32.713Z,61.84
2024-05-09T01:25:02.708Z,61.84
2024-05-09T01:25:32.737Z,61.84
2024-05-09T01:27:32.683Z,61.84
2024-05-09T01:29:02.714Z,61.84
2024-05-09T01:30:04.086Z,61.84
2024-05-09T01:30:35.757Z,61.84
2024-05-09T01:31:02.645Z,61.84
2024-05-09T01:31:32.684Z,61.74
2024-05-09T01:34:02.699Z,61.84
2024-05-09T01:34:32.608Z,61.84
2024-05-09T01:35:32.655Z,61.74
2024-05-09T01:36:02.594Z,61.74
2024-05-09T01:36:32.578Z,61.84
2024-05-09T01:38:02.733Z,61.84
2024-05-09T01:39:32.541Z,61.84
2024-05-09T01:40:03.530Z,61.94
2024-05-09T01:41:02.560Z,61.94
2024-05-09T01:42:02.513Z,61.94
2024-05-09T01:42:32.512Z,61.94
2024-05-09T01:43:32.496Z,61.84
2024-05-09T01:45:02.476Z,61.84
2024-05-09T01:45:32.496Z,61.84
2024-05-09T01:46:32.460Z,61.84
2024-05-09T01:48:03.005Z,61.84
2024-05-09T01:48:32.525Z,61.84
2024-05-09T01:49:02.508Z,61.84
2024-05-09T01:51:02.501Z,61.84
2024-05-09T01:51:32.404Z,61.84
2024-05-09T01:53:02.464Z,61.94
2024-05-09T01:53:32.533Z,61.84
2024-05-09T01:54:02.369Z,61.84
2024-05-09T01:54:32.375Z,61.84
2024-05-09T01:57:32.337Z,61.94
2024-05-09T01:58:02.335Z,61.94
2024-05-09T01:58:32.347Z,61.94
2024-05-09T01:59:32.414Z,61.94
2024-05-09T02:00:02.308Z,61.94
2024-05-09T02:01:02.430Z,61.84
2024-05-09T02:03:02.549Z,61.84
2024-05-09T02:03:32.433Z,61.84
2024-05-09T02:04:02.727Z,61.84
2024-05-09T02:05:32.519Z,61.84
2024-05-09T02:06:32.231Z,61.84
2024-05-09T02:07:32.217Z,61.94
2024-05-09T02:08:32.342Z,61.94
2024-05-09T02:09:02.224Z,61.94
2024-05-09T02:09:32.202Z,61.94
2024-05-09T02:11:02.322Z,61.94
2024-05-09T02:12:02.313Z,61.84
2024-05-09T02:14:02.173Z,61.84
2024-05-09T02:14:32.202Z,61.84
2024-05-09T02:15:02.146Z,61.94
2024-05-09T02:16:02.133Z,61.94
2024-05-09T02:16:32.130Z,61.94
2024-05-09T02:17:32.234Z,61.94
2024-05-09T02:19:32.223Z,61.94
2024-05-09T02:20:02.182Z,61.94
2024-05-09T02:20:36.248Z,61.94
2024-05-09T02:21:02.172Z,61.94
2024-05-09T02:21:32.064Z,61.94
2024-05-09T02:22:02.060Z,61.94
2024-05-09T02:23:02.144Z,61.94
2024-05-09T02:25:02.019Z,61.94
2024-05-09T02:26:02.024Z,61.94
2024-05-09T02:26:32.098Z,61.94
2024-05-09T02:27:01.991Z,61.94
2024-05-09T02:27:31.994Z,61.94
2024-05-09T02:29:32.070Z,61.94
2024-05-09T02:30:39.175Z,61.94
2024-05-09T02:31:31.966Z,61.84
2024-05-09T02:32:02.077Z,61.84
2024-05-09T02:33:02.075Z,61.94
2024-05-09T02:33:32.169Z,61.84
2024-05-09T02:35:01.992Z,61.94
2024-05-09T02:36:01.886Z,61.94
2024-05-09T02:37:01.898Z,61.94
2024-05-09T02:37:31.876Z,61.94
2024-05-09T02:38:31.978Z,61.94
2024-05-09T02:39:01.899Z,61.94
2024-05-09T02:39:31.868Z,61.94
2024-05-09T02:40:37.063Z,61.94
2024-05-09T02:41:31.898Z,61.94
2024-05-09T02:42:31.817Z,61.94
2024-05-09T02:43:01.808Z,61.94
2024-05-09T02:45:01.792Z,61.94
2024-05-09T02:45:31.783Z,61.94
2024-05-09T02:46:01.778Z,61.94
2024-05-09T02:47:01.801Z,61.94
2024-05-09T02:48:02.360Z,61.84
2024-05-09T02:48:31.886Z,61.84
2024-05-09T02:50:37.883Z,61.94
2024-05-09T02:51:01.733Z,61.84
2024-05-09T02:51:31.738Z,61.84
2024-05-09T02:52:31.707Z,61.94
2024-05-09T02:53:31.829Z,61.94
2024-05-09T02:55:01.692Z,61.94
2024-05-09T02:56:01.695Z,61.94
2024-05-09T02:56:31.736Z,61.94
2024-05-09T02:57:01.665Z,61.94
2024-05-09T02:58:01.637Z,61.94
2024-05-09T02:59:01.686Z,61.94
2024-05-09T03:00:38.289Z,61.94
2024-05-09T03:01:31.615Z,61.94
2024-05-09T03:02:31.650Z,61.97
2024-05-09T03:03:01.860Z,61.94
2024-05-09T03:03:31.900Z,61.94
2024-05-09T03:05:31.704Z,61.94
2024-05-09T03:06:01.572Z,61.97
2024-05-09T03:07:01.551Z,61.94
2024-05-09T03:08:01.654Z,61.94
2024-05-09T03:08:31.686Z,61.97
2024-05-09T03:10:01.500Z,62.07
2024-05-09T03:11:01.549Z,62.07
2024-05-09T03:11:31.584Z,62.07
2024-05-09T03:12:31.526Z,61.94
2024-05-09T03:13:31.470Z,61.97
2024-05-09T03:14:31.540Z,61.97
2024-05-09T03:15:01.446Z,61.94
2024-05-09T03:15:31.443Z,61.97
2024-05-09T03:16:31.437Z,61.97
2024-05-09T03:17:01.501Z,61.97
2024-05-09T03:18:01.880Z,61.97
2024-05-09T03:20:01.401Z,61.97
2024-05-09T03:20:34.819Z,61.97
2024-05-09T03:21:01.484Z,61.97
2024-05-09T03:22:01.369Z,61.97
2024-05-09T03:22:31.353Z,61.97
2024-05-09T03:23:31.365Z,61.97
2024-05-09T03:25:31.399Z,62.07
2024-05-09T03:26:01.413Z,62.07
2024-05-09T03:26:31.389Z,62.07
2024-05-09T03:28:01.434Z,62.07
2024-05-09T03:28:31.284Z,62.07
2024-05-09T03:29:01.337Z,62.17
2024-05-09T03:29:31.345Z,62.17
2024-05-09T03:31:01.266Z,62.07
2024-05-09T03:31:31.257Z,62.07
2024-05-09T03:33:01.363Z,62.07
2024-05-09T03:33:31.583Z,62.07
2024-05-09T03:35:01.252Z,61.97
2024-05-09T03:35:31.278Z,62.07
2024-05-09T03:36:31.191Z,62.07
2024-05-09T03:38:01.225Z,62.07
2024-05-09T03:39:01.219Z,62.07
2024-05-09T03:39:31.173Z,62.07
2024-05-09T03:40:31.474Z,62.07
2024-05-09T03:41:01.222Z,62.07
2024-05-09T03:42:01.213Z,62.07
2024-05-09T03:43:01.126Z,62.07
2024-05-09T03:43:31.127Z,62.07
2024-05-09T03:44:31.285Z,62.07
2024-05-09T03:45:01.113Z,62.07
2024-05-09T03:46:01.102Z,61.97
2024-05-09T03:48:31.125Z,61.97
2024-05-09T03:49:01.177Z,62.07
2024-05-09T03:49:31.094Z,62.07
2024-05-09T03:50:01.158Z,61.97
2024-05-09T03:50:35.485Z,62.07
2024-05-09T03:52:31.018Z,61.97
2024-05-09T03:54:01.020Z,62.07
2024-05-09T03:54:30.985Z,61.97
2024-05-09T03:55:00.997Z,62.07
2024-05-09T03:55:31.174Z,62.07
2024-05-09T03:56:01.046Z,61.97
2024-05-09T03:58:00.976Z,61.97
2024-05-09T03:59:31.146Z,61.97
2024-05-09T04:00:00.918Z,62.07
2024-05-09T04:00:37.450Z,61.97
2024-05-09T04:01:00.974Z,61.97
2024-05-09T04:01:31.112Z,61.97
2024-05-09T04:02:01.101Z,61.97
2024-05-09T04:03:31.038Z,62.07
2024-05-09T04:05:00.899Z,62.07
2024-05-09T04:06:00.884Z,62.07
2024-05-09T04:06:30.860Z,62.07
2024-05-09T04:07:00.852Z,62.07
2024-05-09T04:08:30.928Z,62.07
2024-05-09T04:09:00.826Z,62.07
2024-05-09T04:10:33.914Z,62.07
2024-05-09T04:11:30.903Z,62.07
2024-05-09T04:12:30.863Z,61.97
2024-05-09T04:13:00.846Z,61.97
2024-05-09T04:14:00.815Z,61.97
2024-05-09T04:15:30.924Z,61.97
2024-05-09T04:16:00.749Z,62.07
2024-05-09T04:17:00.757Z,62.07
2024-05-09T04:18:30.796Z,61.97
2024-05-09T04:19:30.766Z,61.97
2024-05-09T04:20:00.875Z,61.97
2024-05-09T04:21:30.678Z,62.07
2024-05-09T04:22:00.675Z,62.07
2024-05-09T04:23:00.749Z,62.07
2024-05-09T04:23:30.905Z,61.97
2024-05-09T04:24:00.646Z,61.97
2024-05-09T04:25:00.656Z,62.07
2024-05-09T04:25:30.639Z,61.97
2024-05-09T04:27:00.636Z,62.07
2024-05-09T04:28:30.608Z,62.07
2024-05-09T04:29:00.657Z,62.07
2024-05-09T04:29:30.750Z,62.07
2024-05-09T04:30:37.332Z,62.07
2024-05-09T04:32:00.716Z,62.07
2024-05-09T04:32:30.738Z,61.97
2024-05-09T04:33:00.639Z,61.97
2024-05-09T04:34:00.671Z,61.97
2024-05-09T04:34:30.579Z,61.97
2024-05-09T04:35:00.554Z,61.97
2024-05-09T04:37:00.521Z,61.97
2024-05-09T04:38:00.730Z,62.07
2024-05-09T04:38:30.532Z,61.97
2024-05-09T04:39:30.501Z,61.97
2024-05-09T04:40:00.476Z,61.97
2024-05-09T04:40:34.393Z,61.97
2024-05-09T04:42:30.459Z,61.97
2024-05-09T04:43:30.433Z,61.97
2024-05-09T04:44:00.448Z,61.97
2024-05-09T04:45:00.437Z,61.87
2024-05-09T04:45:30.456Z,61.87
2024-05-09T04:47:00.428Z,61.97
2024-05-09T04:48:01.193Z,61.87
2024-05-09T04:49:00.491Z,61.87
2024-05-09T04:49:30.399Z,61.87
2024-05-09T04:50:36.735Z,61.87
2024-05-09T04:51:00.385Z,61.87
2024-05-09T04:52:30.334Z,61.87
2024-05-09T04:53:30.330Z,61.97
2024-05-09T04:54:36.078Z,61.97
2024-05-09T04:55:00.310Z,61.97
2024-05-09T04:56:00.338Z,61.97
2024-05-09T04:57:30.277Z,61.97
2024-05-09T04:58:00.327Z,61.97
2024-05-09T04:59:00.267Z,61.97
2024-05-09T05:00:36.043Z,61.97
2024-05-09T05:01:00.231Z,61.97
2024-05-09T05:01:30.318Z,61.97
2024-05-09T05:03:30.432Z,61.87
2024-05-09T05:04:30.271Z,61.97
2024-05-09T05:05:00.349Z,61.87
2024-05-09T05:06:00.252Z,61.87
2024-05-09T05:06:30.204Z,61.87
2024-05-09T05:07:02.523Z,61.87
2024-05-09T05:09:00.147Z,61.87
2024-05-09T05:10:00.146Z,61.87
2024-05-09T05:10:35.749Z,61.87
2024-05-09T05:11:00.215Z,61.87
2024-05-09T05:11:30.194Z,61.87
2024-05-09T05:12:00.269Z,61.87
2024-05-09T05:13:30.095Z,61.87
2024-05-09T05:14:30.222Z,61.77
2024-05-09T05:16:00.061Z,61.74
2024-05-09T05:16:30.064Z,61.74
2024-05-09T05:17:00.076Z,61.64
2024-05-09T05:17:30.240Z,61.64
2024-05-09T05:18:00.663Z,61.64
2024-05-09T05:19:00.165Z,61.64
2024-05-09T05:20:00.175Z,61.64
2024-05-09T05:21:30.168Z,61.64
2024-05-09T05:21:59.995Z,61.64
2024-05-09T05:23:00.029Z,61.64
2024-05-09T05:23:30.028Z,61.64
2024-05-09T05:24:29.963Z,61.64
2024-05-09T05:25:29.943Z,61.64
2024-05-09T05:26:59.927Z,61.64
2024-05-09T05:27:29.934Z,61.54
2024-05-09T05:28:29.921Z,61.54
2024-05-09T05:28:59.965Z,61.54
2024-05-09T05:29:59.900Z,61.54
2024-05-09T05:30:59.892Z,61.54
2024-05-09T05:32:29.954Z,61.44
2024-05-09T05:33:00.335Z,61.44
2024-05-09T05:33:59.908Z,61.44
2024-05-09T05:34:29.843Z,61.44
2024-05-09T05:34:59.891Z,61.44
2024-05-09T05:35:30.066Z,61.34
2024-05-09T05:36:29.822Z,61.44
2024-05-09T05:37:29.836Z,61.34
2024-05-09T05:37:59.841Z,61.34
2024-05-09T05:38:29.858Z,61.34
2024-05-09T05:39:59.785Z,61.24
2024-05-09T05:40:59.846Z,61.34
2024-05-09T05:41:29.842Z,61.34
2024-05-09T05:42:59.743Z,61.24
2024-05-09T05:44:29.832Z,61.14
2024-05-09T05:44:59.734Z,61.01
2024-05-09T05:45:29.790Z,61.01
2024-05-09T05:45:59.741Z,61.01
2024-05-09T05:47:29.874Z,61.01
2024-05-09T05:48:59.708Z,60.91
2024-05-09T05:49:29.735Z,60.91
2024-05-09T05:49:59.720Z,60.81
2024-05-09T05:51:02.688Z,60.81
2024-05-09T05:51:59.643Z,60.71
2024-05-09T05:52:29.640Z,60.71
2024-05-09T05:53:59.621Z,60.71
2024-05-09T05:54:29.613Z,60.71
2024-05-09T05:54:59.604Z,60.71
2024-05-09T05:55:59.641Z,60.61
2024-05-09T05:56:29.649Z,60.61
2024-05-09T05:57:29.587Z,60.51
2024-05-09T05:58:59.594Z,60.51
2024-05-09T05:59:59.563Z,60.51
2024-05-09T06:00:37.197Z,60.61
2024-05-09T06:01:29.635Z,60.51
2024-05-09T06:01:59.574Z,60.51
2024-05-09T06:02:59.652Z,60.41
2024-05-09T06:04:29.548Z,60.28
2024-05-09T06:05:29.527Z,60.28
2024-05-09T06:05:59.791Z,60.28
2024-05-09T06:07:29.467Z,60.28
2024-05-09T06:08:30.452Z,60.18
2024-05-09T06:09:59.476Z,60.08
2024-05-09T06:10:37.631Z,60.08
2024-05-09T06:11:29.527Z,60.08
2024-05-09T06:11:59.470Z,60.08
2024-05-09T06:12:59.403Z,60.08
2024-05-09T06:13:59.425Z,59.98
2024-05-09T06:14:59.452Z,59.98
2024-05-09T06:15:29.369Z,59.98
2024-05-09T06:15:59.374Z,59.88
2024-05-09T06:16:59.389Z,59.88
2024-05-09T06:17:29.509Z,59.88
2024-05-09T06:18:29.586Z,59.88
2024-05-09T06:20:35.796Z,59.88
2024-05-09T06:20:59.318Z,59.75
2024-05-09T06:21:29.328Z,59.75
2024-05-09T06:22:29.289Z,59.65
2024-05-09T06:22:59.310Z,59.65
2024-05-09T06:23:59.275Z,59.55
2024-05-09T06:25:59.277Z,59.55
2024-05-09T06:26:59.244Z,59.45
2024-05-09T06:27:29.247Z,59.45
2024-05-09T06:27:59.264Z,59.45
2024-05-09T06:28:29.236Z,59.45
2024-05-09T06:29:29.367Z,59.45
2024-05-09T06:31:29.195Z,59.35
2024-05-09T06:32:29.406Z,59.35
2024-05-09T06:32:59.263Z,59.35
2024-05-09T06:33:29.423Z,59.35
2024-05-09T06:33:59.340Z,59.35
2024-05-09T06:34:59.175Z,59.35
2024-05-09T06:36:59.125Z,59.25
2024-05-09T06:37:59.173Z,59.25
2024-05-09T06:38:29.145Z,59.22
2024-05-09T06:38:59.117Z,59.12
2024-05-09T06:39:29.099Z,59.12
2024-05-09T06:41:29.159Z,59.12
2024-05-09T06:42:29.058Z,59.02
2024-05-09T06:43:29.061Z,59.02
2024-05-09T06:43:59.188Z,59.02
2024-05-09T06:44:59.088Z,59.02
2024-05-09T06:46:29.023Z,59.02
2024-05-09T06:47:00.043Z,59.02
2024-05-09T06:47:59.260Z,59.12
2024-05-09T06:48:59.248Z,59.12
2024-05-09T06:49:29.136Z,59.12
2024-05-09T06:50:36.813Z,59.12
2024-05-09T06:51:58.965Z,59.12
2024-05-09T06:52:28.966Z,59.12
2024-05-09T06:53:29.022Z,59.12
2024-05-09T06:54:58.930Z,59.12
2024-05-09T06:55:28.937Z,59.12
2024-05-09T06:55:58.998Z,59.12
2024-05-09T06:57:28.923Z,59.12
2024-05-09T06:57:58.892Z,59.02
2024-05-09T06:58:58.920Z,59.02
2024-05-09T07:00:58.883Z,59.02
2024-05-09T07:01:28.960Z,59.02
2024-05-09T07:01:58.900Z,59.02
2024-05-09T07:02:29.052Z,59.02
2024-05-09T07:03:01.677Z,59.02
2024-05-09T07:03:28.994Z,59.02
2024-05-09T07:04:28.971Z,58.92
2024-05-09T07:06:58.806Z,59.02
2024-05-09T07:07:28.792Z,58.92
2024-05-09T07:07:58.798Z,58.92
2024-05-09T07:08:28.799Z,58.92
2024-05-09T07:08:58.785Z,58.92
2024-05-09T07:09:58.757Z,58.92
2024-05-09T07:12:28.893Z,58.82
2024-05-09T07:12:58.727Z,58.82
2024-05-09T07:13:28.723Z,58.82
2024-05-09T07:14:28.915Z,58.82
2024-05-09T07:14:58.712Z,58.82
2024-05-09T07:16:28.693Z,58.82
2024-05-09T07:17:58.863Z,58.82
2024-05-09T07:18:28.915Z,58.82
2024-05-09T07:18:59.493Z,58.82
2024-05-09T07:19:58.817Z,58.82
2024-05-09T07:20:34.416Z,58.82
2024-05-09T07:21:58.624Z,58.72
2024-05-09T07:23:28.611Z,58.72
2024-05-09T07:24:28.592Z,58.72
2024-05-09T07:24:58.618Z,58.72
2024-05-09T07:25:28.769Z,58.62
2024-05-09T07:25:58.647Z,58.62
2024-05-09T07:27:28.583Z,58.59
2024-05-09T07:27:58.569Z,58.59
2024-05-09T07:28:58.594Z,58.59
2024-05-09T07:29:58.553Z,58.49
2024-05-09T07:30:58.602Z,58.49
2024-05-09T07:31:28.529Z,58.39
2024-05-09T07:33:28.855Z,58.39
2024-05-09T07:34:28.599Z,58.39
2024-05-09T07:34:58.531Z,58.39
2024-05-09T07:35:28.751Z,58.39
2024-05-09T07:36:58.459Z,58.29
2024-05-09T07:37:28.463Z,58.29
2024-05-09T07:38:58.434Z,58.19
2024-05-09T07:39:58.435Z,57.97
2024-05-09T07:40:58.488Z,57.87
2024-05-09T07:41:28.452Z,57.67
2024-05-09T07:42:28.410Z,57.46
2024-05-09T07:44:28.496Z,57.24
2024-05-09T07:45:14.730Z,57.24
2024-05-09T07:47:36.483Z,57.24
2024-05-09T07:50:53.132Z,57.24
2024-05-09T07:53:32.543Z,57.14
2024-05-09T07:53:49.321Z,56.31
2024-05-09T07:54:56.203Z,55.58
2024-05-09T07:55:26.042Z,55.46
2024-05-09T07:55:56.634Z,55.36
2024-05-09T07:57:25.944Z,54.96
2024-05-09T07:58:25.896Z,54.64
2024-05-09T07:59:25.882Z,54.44
2024-05-09T08:00:31.079Z,54.21
2024-05-09T08:01:55.991Z,53.91
2024-05-09T08:02:25.941Z,53.81
2024-05-09T08:02:55.960Z,53.69
2024-05-09T08:03:56.124Z,53.49
2024-05-09T08:04:55.925Z,53.29
2024-05-09T08:05:55.809Z,53.06
2024-05-09T08:07:25.791Z,52.76
2024-05-09T08:07:55.794Z,52.67
2024-05-09T08:08:25.780Z,52.67
2024-05-09T08:09:25.768Z,52.44
2024-05-09T08:10:28.940Z,52.24
2024-05-09T08:11:25.768Z,52.04
2024-05-09T08:12:55.764Z,51.72
2024-05-09T08:13:55.795Z,51.62
2024-05-09T08:14:25.720Z,51.62
2024-05-09T08:14:55.711Z,51.52
2024-05-09T08:15:55.788Z,51.42
2024-05-09T08:16:55.723Z,51.32
2024-05-09T08:18:25.845Z,51.20
2024-05-09T08:19:25.730Z,51.20
2024-05-09T08:19:55.653Z,51.20
2024-05-09T08:20:31.114Z,51.20
2024-05-09T08:21:25.641Z,51.20
2024-05-09T08:23:25.614Z,51.52
2024-05-09T08:23:55.605Z,51.72
2024-05-09T08:24:55.656Z,52.04
2024-05-09T08:25:25.707Z,52.24
2024-05-09T08:25:55.583Z,52.37
2024-05-09T08:27:55.644Z,52.97
2024-05-09T08:28:55.544Z,53.19
2024-05-09T08:29:25.530Z,53.39
2024-05-09T08:30:32.796Z,53.49
2024-05-09T08:30:55.712Z,53.61
2024-05-09T08:32:25.514Z,53.81
2024-05-09T08:33:25.713Z,53.91
2024-05-09T08:34:25.566Z,54.01
2024-05-09T08:34:55.612Z,54.01
2024-05-09T08:35:55.478Z,54.11
2024-05-09T08:36:25.475Z,54.11
2024-05-09T08:37:55.501Z,54.21
2024-05-09T08:38:55.421Z,54.31
2024-05-09T08:39:55.492Z,54.21
2024-05-09T08:40:32.937Z,54.31
2024-05-09T08:42:25.401Z,54.31
2024-05-09T08:42:55.405Z,54.31
2024-05-09T08:43:25.389Z,54.31
2024-05-09T08:44:25.374Z,54.31
2024-05-09T08:45:25.399Z,54.31
2024-05-09T08:46:25.537Z,54.31
2024-05-09T08:46:55.348Z,54.21
2024-05-09T08:47:55.444Z,54.21
2024-05-09T08:48:25.531Z,54.21
2024-05-09T08:48:55.534Z,54.21
2024-05-09T08:49:55.316Z,54.21
2024-05-09T08:51:55.327Z,54.21
2024-05-09T08:52:25.268Z,54.21
2024-05-09T08:53:25.267Z,54.21
2024-05-09T08:53:55.266Z,54.21
2024-05-09T08:54:25.271Z,54.21
2024-05-09T08:55:25.387Z,54.11
2024-05-09T08:57:25.215Z,54.11
2024-05-09T08:57:55.258Z,54.11
2024-05-09T08:58:55.205Z,54.11
2024-05-09T08:59:55.184Z,54.11
2024-05-09T09:00:33.876Z,54.11
2024-05-09T09:00:55.360Z,54.01
2024-05-09T09:02:55.209Z,53.91
2024-05-09T09:03:25.302Z,53.91
2024-05-09T09:03:55.353Z,53.91
2024-05-09T09:04:25.257Z,53.91
2024-05-09T09:05:25.374Z,53.91
2024-05-09T09:05:55.133Z,53.78
2024-05-09T09:06:25.111Z,53.81
2024-05-09T09:08:55.100Z,53.69
2024-05-09T09:09:25.094Z,53.69
2024-05-09T09:09:55.114Z,53.69
2024-05-09T09:11:55.113Z,53.59
2024-05-09T09:12:25.051Z,53.59
2024-05-09T09:13:55.031Z,53.49
2024-05-09T09:14:25.022Z,53.49
2024-05-09T09:14:55.030Z,53.39
2024-05-09T09:15:25.020Z,53.39
2024-05-09T09:15:55.111Z,53.39
2024-05-09T09:17:25.084Z,53.29
2024-05-09T09:17:55.048Z,53.16
2024-05-09T09:19:25.120Z,53.06
2024-05-09T09:19:55.043Z,53.06
2024-05-09T09:20:55.288Z,52.97
2024-05-09T09:21:24.957Z,52.86
2024-05-09T09:22:54.931Z,52.64
2024-05-09T09:23:24.921Z,52.54
2024-05-09T09:24:54.956Z,52.02
2024-05-09T09:25:24.904Z,51.72
2024-05-09T09:26:24.940Z,51.30
2024-05-09T09:26:54.965Z,51.07
2024-05-09T09:29:24.865Z,49.84
2024-05-09T09:29:54.859Z,49.63
2024-05-09T09:30:34.654Z,49.44
2024-05-09T09:30:54.895Z,49.21
2024-05-09T09:31:54.836Z,48.92
2024-05-09T09:34:24.970Z,48.27
2024-05-09T09:34:54.868Z,48.18
2024-05-09T09:35:24.797Z,48.08
2024-05-09T09:35:54.783Z,47.98
2024-05-09T09:37:24.765Z,47.46
2024-05-09T09:38:24.757Z,47.24
2024-05-09T09:39:24.781Z,47.04
2024-05-09T09:39:54.779Z,46.84
2024-05-09T09:40:31.077Z,46.72
2024-05-09T09:40:54.780Z,46.62
2024-05-09T09:42:24.723Z,46.33
2024-05-09T09:42:54.733Z,46.33
2024-05-09T09:45:02.057Z,46.11
2024-05-09T09:45:24.692Z,46.11
2024-05-09T09:45:54.724Z,46.01
2024-05-09T09:47:24.714Z,45.81
2024-05-09T09:47:54.734Z,45.81
2024-05-09T09:49:24.701Z,45.68
2024-05-09T09:50:33.215Z,45.59
2024-05-09T09:50:54.621Z,45.59
2024-05-09T09:52:24.704Z,45.39
2024-05-09T09:53:54.597Z,45.39
2024-05-09T09:54:24.590Z,45.39
2024-05-09T09:54:54.897Z,45.29
2024-05-09T09:55:54.568Z,45.27
2024-05-09T09:56:24.624Z,45.17
2024-05-09T09:58:54.534Z,44.75
2024-05-09T09:59:24.532Z,44.75
2024-05-09T09:59:54.536Z,44.65
2024-05-09T10:00:30.647Z,44.56
2024-05-09T10:00:54.684Z,44.56
2024-05-09T10:01:24.683Z,44.56
2024-05-09T10:02:54.522Z,44.36
2024-05-09T10:04:24.535Z,44.24
2024-05-09T10:04:54.601Z,44.14
2024-05-09T10:05:54.572Z,44.04
2024-05-09T10:06:54.489Z,44.04
2024-05-09T10:08:24.428Z,44.24
2024-05-09T10:09:24.412Z,44.24
2024-05-09T10:10:31.435Z,44.14
2024-05-09T10:10:54.597Z,44.14
2024-05-09T10:11:24.418Z,44.34
2024-05-09T10:12:24.439Z,44.14
2024-05-09T10:13:54.376Z,44.14
2024-05-09T10:14:54.382Z,44.14
2024-05-09T10:15:54.800Z,44.04
2024-05-09T10:16:54.326Z,44.04
2024-05-09T10:17:54.428Z,44.65
2024-05-09T10:18:26.335Z,45.07
2024-05-09T10:19:24.454Z,45.29
2024-05-09T10:20:28.183Z,46.01
2024-05-09T10:22:24.298Z,46.11
2024-05-09T10:22:54.259Z,46.33
2024-05-09T10:23:24.259Z,46.62
2024-05-09T10:23:54.300Z,46.94
2024-05-09T10:24:54.287Z,47.46
2024-05-09T10:26:54.223Z,48.50
2024-05-09T10:27:54.261Z,48.82
2024-05-09T10:28:24.200Z,49.02
2024-05-09T10:29:24.205Z,49.32
2024-05-09T10:29:54.193Z,49.32
2024-05-09T10:32:24.322Z,49.21
2024-05-09T10:33:24.264Z,49.11
2024-05-09T10:33:54.321Z,49.02
2024-05-09T10:34:54.168Z,49.21
2024-05-09T10:35:24.121Z,49.32
2024-05-09T10:35:54.118Z,49.32
2024-05-09T10:38:54.107Z,49.63
2024-05-09T10:39:24.166Z,49.63
2024-05-09T10:39:54.090Z,49.63
2024-05-09T10:40:29.391Z,49.74
2024-05-09T10:41:24.124Z,49.84
2024-05-09T10:41:54.042Z,50.03
2024-05-09T10:44:24.030Z,49.74
2024-05-09T10:44:54.028Z,49.63
2024-05-09T10:45:24.036Z,49.84
2024-05-09T10:45:54.072Z,49.84
2024-05-09T10:47:24.195Z,50.26
2024-05-09T10:47:54.135Z,50.35
2024-05-09T10:49:54.051Z,50.88
2024-05-09T10:50:28.661Z,50.98
2024-05-09T10:51:23.943Z,51.07
2024-05-09T10:51:54.039Z,51.17
2024-05-09T10:52:53.931Z,51.28
2024-05-09T10:53:23.921Z,51.30
2024-05-09T10:55:24.050Z,51.60
2024-05-09T10:55:53.901Z,51.70
2024-05-09T10:56:23.898Z,51.70
2024-05-09T10:57:23.882Z,51.70
2024-05-09T10:57:53.941Z,51.79
2024-05-09T10:58:23.912Z,51.79
2024-05-09T10:58:53.871Z,51.79
2024-05-09T11:01:23.894Z,51.79
2024-05-09T11:01:53.926Z,51.79
2024-05-09T11:02:53.859Z,51.28
2024-05-09T11:03:23.915Z,50.56
2024-05-09T11:03:54.020Z,49.91
2024-05-09T11:04:23.905Z,49.39
2024-05-09T11:07:23.835Z,47.86
2024-05-09T11:07:53.782Z,47.53
2024-05-09T11:08:23.765Z,47.34
2024-05-09T11:08:53.781Z,47.24
2024-05-09T11:09:23.734Z,46.92
2024-05-09T11:09:53.783Z,46.60
2024-05-09T11:10:27.906Z,46.50
2024-05-09T11:12:53.788Z,46.20
2024-05-09T11:13:23.693Z,46.11
2024-05-09T11:14:23.684Z,45.98
2024-05-09T11:14:53.678Z,46.11
2024-05-09T11:15:23.699Z,46.20
2024-05-09T11:15:53.789Z,46.62
2024-05-09T11:18:53.796Z,47.44
2024-05-09T11:19:23.771Z,47.75
2024-05-09T11:19:53.666Z,48.08
2024-05-09T11:20:53.614Z,48.80
2024-05-09T11:21:23.608Z,49.11
2024-05-09T11:22:23.624Z,49.61
2024-05-09T11:24:23.576Z,50.35
2024-05-09T11:24:53.639Z,50.56
2024-05-09T11:25:23.597Z,50.65
2024-05-09T11:26:53.571Z,50.85
2024-05-09T11:27:23.536Z,50.75
2024-05-09T11:27:53.589Z,50.45
2024-05-09T11:28:23.616Z,50.45
2024-05-09T11:29:53.509Z,50.98
2024-05-09T11:30:29.816Z,51.07
2024-05-09T11:30:53.523Z,51.17
2024-05-09T11:31:23.767Z,51.17
2024-05-09T11:32:23.542Z,50.13
2024-05-09T11:34:23.527Z,50.56
2024-05-09T11:35:23.448Z,50.75
2024-05-09T11:35:53.444Z,50.75
2024-05-09T11:36:23.452Z,50.56
2024-05-09T11:36:53.492Z,50.56
2024-05-09T11:37:53.448Z,50.33
2024-05-09T11:39:53.585Z,50.13
2024-05-09T11:40:53.567Z,50.33
2024-05-09T11:41:23.384Z,50.45
2024-05-09T11:42:23.369Z,50.56
2024-05-09T11:42:53.697Z,50.75
2024-05-09T11:43:23.410Z,50.75
2024-05-09T11:44:23.355Z,49.81
2024-05-09T11:45:23.325Z,49.09
2024-05-09T11:46:23.397Z,48.57
2024-05-09T11:46:53.359Z,48.35
2024-05-09T11:47:53.483Z,47.86
2024-05-09T11:48:23.470Z,47.96
2024-05-09T11:49:26.783Z,48.57
2024-05-09T11:49:53.387Z,48.99
2024-05-09T11:50:53.281Z,49.51
2024-05-09T11:52:23.290Z,50.13
2024-05-09T11:52:53.258Z,50.45
2024-05-09T11:53:23.242Z,50.56
2024-05-09T11:54:53.277Z,51.07
2024-05-09T11:55:27.413Z,51.17